Porter Ranch, California
Current Conditions -  °F | °C
As of 4:51 PM on Thursday 27 Nov 2014 (Local Time) from KVNY Reporting Station
Clear Clear  
Wind Chill: 80°   Ceiling: Unl
Heat Index: 80°   Visibility: 10mi
Dew Point: 25°   Wind: 5mph
Humidity: 13%   Direction: 290°WNW
Pressure: 30.01"   Gusts: NA
Location:  34.2807°N, 118.556°W
Report Text: KVNY 280051Z 29004KT 10SM CLR 27/M04 A3001 RMK AO2 SLP156 T02671039
Loading
Personal Weather Stations






























Interactive Weather Map New forecast layout! Learn more

10-Day Weather Forecast

Advertisements
Track Severe Weather on mobile